Clayton, Georgia
Current Conditions -  °F | °C
As of 11:55 AM on Monday 22 Dec 2014 (Local Time) from KTOC Reporting Station
Haze Haze  
Wind Chill: 40°   Ceiling: 600
Heat Index: 44°   Visibility: 4mi
Dew Point: 43°   Wind: 8mph
Humidity: 96%   Direction: 80°E
Pressure: 30.04"   Gusts: NA
Location:  34.88°N, 83.4°W
Report Text: KTOC 221655Z AUTO 08007KT 4SM BR OVC006 07/06 A3004 RMK AO2 T00670061
Loading
Personal Weather Stations






























Interactive Weather Map New forecast layout! Learn more

10-Day Weather Forecast

Advertisements
Track Severe Weather on mobile